.
WxDataArchive / Data Records for 2011-04-21
2011-04-20 April 2011 2011-04-22

Data Records for Thursday, 21 April 2011

Time	Temp	Chill	HIndex	Humid	Dewpt	 Wind 	HiWind	WindDir	Rain 	Barom 
-----	----	-----	------	-----	-----	------	------	-------	-----	----- 
00:00	41.2	41.2	41.2	76	34.2	1	3	248	0.00	30.237 
00:05	41.2	41.2	41.2	76	34.2	1	4	248	0.00	30.237 
00:10	41.2	41.2	41.2	77	34.5	1	4	248	0.00	30.237 
00:15	41.1	41.1	41.1	77	34.4	2	5	248	0.00	30.242 
00:20	40.9	40.9	40.9	77	34.3	1	3	248	0.00	30.242 
00:25	40.8	40.8	40.8	77	34.2	1	3	248	0.00	30.242 
00:30	40.6	40.6	40.6	78	34.3	1	3	248	0.00	30.248 
00:35	40.5	40.5	40.5	78	34.2	1	3	248	0.00	30.248 
00:40	40.5	40.5	40.5	79	34.5	1	2	248	0.00	30.248 
00:45	40.5	40.5	40.5	79	34.5	1	3	248	0.00	30.249 
00:50	40.5	40.5	40.5	80	34.8	0	2	248	0.00	30.249 
00:55	40.5	40.5	40.5	80	34.8	0	3	248	0.00	30.249 
01:00	40.5	40.5	40.5	80	34.8	1	3	248	0.00	30.257 
01:05	40.6	40.6	40.6	80	34.9	1	4	248	0.00	30.257 
01:10	40.6	40.6	40.6	79	34.6	2	5	248	0.00	30.257 
01:15	40.6	40.6	40.6	79	34.6	1	6	248	0.00	30.259 
01:20	40.6	40.6	40.6	79	34.6	1	4	248	0.00	30.259 
01:25	40.6	40.6	40.6	79	34.6	2	6	248	0.00	30.259 
01:30	40.6	40.6	40.6	78	34.3	2	5	248	0.00	30.270 
01:35	40.6	40.6	40.6	78	34.3	2	4	248	0.00	30.270 
01:40	40.6	40.6	40.6	79	34.6	1	4	248	0.00	30.270 
01:45	40.6	40.6	40.6	79	34.6	1	4	270	0.00	30.271 
01:50	40.5	40.5	40.5	79	34.5	1	3	248	0.00	30.271 
01:55	40.5	40.5	40.5	79	34.5	1	3	248	0.00	30.271 
02:00	40.5	40.5	40.5	79	34.5	1	4	248	0.00	30.272 
02:05	40.5	40.5	40.5	78	34.2	0	3	248	0.00	30.272 
02:10	40.3	40.3	40.3	78	34.0	1	3	248	0.00	30.272 
02:15	40.3	40.3	40.3	77	33.7	0	2	248	0.00	30.271 
02:20	40.3	40.3	40.3	77	33.7	0	2	248	0.00	30.271 
02:25	40.3	40.3	40.3	77	33.7	0	2	248	0.00	30.271 
02:30	40.3	40.3	40.3	77	33.7	0	3	248	0.00	30.270 
02:35	40.3	40.3	40.3	77	33.7	1	3	248	0.00	30.270 
02:40	40.3	40.3	40.3	77	33.7	0	2	248	0.00	30.270 
02:45	40.3	40.3	40.3	77	33.7	0	2	248	0.00	30.270 
02:50	40.3	40.3	40.3	77	33.7	0	3	248	0.00	30.270 
02:55	40.3	40.3	40.3	77	33.7	1	3	270	0.00	30.270 
03:00	40.3	40.3	40.3	77	33.7	1	3	270	0.00	30.272 
03:05	40.3	40.3	40.3	77	33.7	2	4	270	0.00	30.272 
03:10	40.2	40.2	40.2	77	33.6	1	3	292	0.00	30.272 
03:15	40.2	40.2	40.2	78	33.9	1	2	292	0.00	30.263 
03:20	40.1	40.1	40.1	78	33.8	1	3	292	0.00	30.263 
03:25	39.9	39.9	39.9	79	33.9	0	2	292	0.00	30.263 
03:30	39.9	39.9	39.9	80	34.2	1	3	292	0.00	30.274 
03:35	39.9	39.9	39.9	80	34.2	0	2	292	0.00	30.274 
03:40	39.9	39.9	39.9	80	34.2	1	3	292	0.00	30.274 
03:45	39.8	39.8	39.8	80	34.1	1	4	248	0.00	30.289 
03:50	39.8	39.8	39.8	81	34.5	1	3	248	0.00	30.289 
03:55	39.8	39.8	39.8	81	34.5	1	2	248	0.00	30.289 
04:00	39.6	39.6	39.6	81	34.3	0	3	248	0.00	30.294 
04:05	39.5	39.5	39.5	81	34.2	0	1	248	0.00	30.294 
04:10	39.2	39.2	39.2	81	33.9	0	2	248	0.00	30.294 
04:15	38.9	38.9	38.9	82	33.9	1	3	248	0.00	30.310 
04:20	38.6	38.6	38.6	82	33.6	0	2	248	0.00	30.310 
04:25	38.5	38.5	38.5	83	33.8	0	3	248	0.00	30.310 
04:30	38.2	38.2	38.2	84	33.8	0	3	248	0.00	30.318 
04:35	38.0	38.0	38.0	84	33.6	1	3	248	0.00	30.318 
04:40	37.9	37.9	37.9	84	33.5	0	1	248	0.00	30.318 
04:45	37.8	37.8	37.8	85	33.7	0	2	248	0.00	30.323 
04:50	37.6	37.6	37.6	85	33.5	0	2	248	0.00	30.323 
04:55	37.5	37.5	37.5	85	33.4	0	2	248	0.00	30.323 
05:00	37.2	37.2	37.2	86	33.4	0	2	248	0.00	30.327 
05:05	37.0	37.0	37.0	86	33.2	0	2	248	0.00	30.327 
05:10	37.0	37.0	37.0	86	33.2	0	1	248	0.00	30.327 
05:15	36.8	36.8	36.8	87	33.3	0	1	248	0.00	30.332 
05:20	36.6	36.6	36.6	87	33.1	0	2	248	0.00	30.332 
05:25	36.6	36.6	36.6	87	33.1	1	3	248	0.00	30.332 
05:30	36.5	36.5	36.5	87	33.0	0	2	248	0.00	30.329 
05:35	36.5	36.5	36.5	88	33.3	1	3	248	0.00	30.329 
05:40	36.3	36.3	36.3	88	33.1	0	3	248	0.00	30.329 
05:45	36.2	36.2	36.2	88	33.0	0	2	248	0.00	30.324 
05:50	36.2	36.2	36.2	88	33.0	1	3	248	0.00	30.324 
05:55	36.0	36.0	36.0	88	32.8	0	3	248	0.00	30.324 
06:00	36.0	36.0	36.0	88	32.8	1	2	248	0.00	30.325 
06:05	36.0	36.0	36.0	89	33.1	1	3	248	0.00	30.325 
06:10	36.0	36.0	36.0	89	33.1	1	4	338	0.00	30.325 
06:15	36.0	36.0	36.0	89	33.1	1	3	338	0.00	30.325 
06:20	36.2	36.2	36.2	88	33.0	1	2	338	0.00	30.325 
06:25	36.2	36.2	36.2	88	33.0	1	3	338	0.00	30.325 
06:30	36.0	36.0	36.0	88	32.8	1	2	338	0.00	30.330 
06:35	36.0	36.0	36.0	88	32.8	1	3	315	0.00	30.330 
06:40	35.9	35.9	35.9	88	32.7	0	2	315	0.00	30.330 
06:45	36.0	36.0	36.0	88	32.8	1	3	270	0.00	30.339 
06:50	36.0	36.0	36.0	88	32.8	1	3	270	0.00	30.339 
06:55	36.0	36.0	36.0	88	32.8	0	2	270	0.00	30.339 
07:00	36.0	36.0	36.0	88	32.8	0	2	270	0.00	30.345 
07:05	35.9	35.9	35.9	88	32.7	0	2	270	0.00	30.345 
07:10	35.9	35.9	35.9	88	32.7	0	1	270	0.00	30.345 
07:15	35.8	35.8	35.8	88	32.6	0	0	---	0.00	30.357 
07:20	35.6	35.6	35.6	88	32.4	0	0	---	0.00	30.357 
07:25	35.3	35.3	35.3	88	32.1	0	0	---	0.00	30.357 
07:30	35.2	35.2	35.2	88	32.0	0	0	---	0.00	30.369 
07:35	35.2	35.2	35.2	89	32.3	0	0	---	0.00	30.369 
07:40	35.3	35.3	35.3	89	32.4	0	0	---	0.00	30.369 
07:45	35.3	35.3	35.3	89	32.4	0	0	---	0.00	30.374 
07:50	35.8	35.8	35.8	89	32.9	0	0	---	0.00	30.374 
07:55	36.2	36.2	36.2	89	33.3	0	1	270	0.00	30.374 
08:00	36.8	36.8	36.8	89	33.9	0	1	270	0.00	30.375 
08:05	37.2	37.2	37.2	89	34.3	0	2	270	0.00	30.375 
08:10	37.8	37.8	37.8	88	34.6	0	1	270	0.00	30.375 
08:15	38.3	38.3	38.3	88	35.1	0	1	270	0.00	30.383 
08:20	38.9	38.9	38.9	86	35.1	0	1	270	0.00	30.383 
08:25	39.2	39.2	39.2	85	35.1	0	1	270	0.00	30.383 
08:30	39.5	39.5	39.5	84	35.1	0	1	270	0.00	30.386 
08:35	39.9	39.9	39.9	82	34.9	0	2	270	0.00	30.386 
08:40	40.3	40.3	40.3	81	34.9	0	2	270	0.00	30.386 
08:45	40.6	40.6	40.6	80	34.9	0	1	270	0.00	30.395 
08:50	41.1	41.1	41.1	79	35.1	0	1	270	0.00	30.395 
08:55	41.6	41.6	41.6	78	35.3	0	1	270	0.00	30.395 
09:00	41.9	41.9	41.9	76	34.9	1	2	270	0.00	30.399 
09:05	42.5	42.5	42.5	75	35.1	0	2	270	0.00	30.399 
09:10	42.9	42.9	42.9	72	34.5	1	3	270	0.00	30.399 
09:15	43.1	43.1	43.1	72	34.7	0	2	315	0.00	30.401 
09:20	43.6	43.6	43.6	69	34.1	0	2	315	0.00	30.401 
09:25	44.1	44.1	44.1	66	33.5	1	3	315	0.00	30.401 
09:30	44.2	44.2	44.2	65	33.2	1	2	338	0.00	30.405 
09:35	44.5	44.5	44.5	65	33.5	1	4	248	0.00	30.405 
09:40	45.1	45.1	45.1	64	33.7	1	3	248	0.00	30.405 
09:45	45.5	45.5	45.5	62	33.2	1	4	315	0.00	30.408 
09:50	45.7	45.7	45.7	61	33.0	1	3	315	0.00	30.408 
09:55	46.2	46.2	46.2	62	33.9	1	5	292	0.00	30.408 
10:00	46.4	46.4	46.4	60	33.3	1	3	315	0.00	30.410 
10:05	46.7	46.7	46.7	59	33.1	1	4	338	0.00	30.410 
10:10	46.7	46.7	46.7	59	33.1	1	5	315	0.00	30.410 
10:15	46.5	46.5	46.5	61	33.8	1	4	338	0.00	30.412 
10:20	46.8	46.8	46.8	61	34.1	1	4	338	0.00	30.412 
10:25	47.0	47.0	47.0	61	34.3	1	4	338	0.00	30.412 
10:30	47.1	47.1	47.1	61	34.4	1	4	338	0.00	30.413 
10:35	47.3	47.3	47.3	59	33.7	1	4	270	0.00	30.413 
10:40	47.4	47.4	47.4	59	33.8	1	3	270	0.00	30.413 
10:45	47.6	47.6	47.6	60	34.4	1	4	0	0.00	30.411 
10:50	47.6	47.6	47.6	58	33.6	2	5	0	0.00	30.411 
10:55	48.0	48.0	48.0	61	35.2	1	3	338	0.00	30.411 
11:00	48.5	48.5	48.5	58	34.4	1	5	68	0.00	30.414 
11:05	48.3	48.3	48.3	59	34.6	1	3	338	0.00	30.414 
11:10	48.5	48.5	48.5	59	34.8	0	2	338	0.00	30.414 
11:15	48.3	48.3	48.3	56	33.3	1	5	292	0.00	30.413 
11:20	48.5	48.5	48.5	57	34.0	1	3	0	0.00	30.413 
11:25	48.8	48.8	48.8	58	34.7	1	3	0	0.00	30.413 
11:30	49.2	49.2	49.2	59	35.5	1	3	338	0.00	30.411 
11:35	49.1	49.1	49.1	54	33.2	1	6	338	0.00	30.411 
11:40	49.4	49.4	49.4	55	33.9	1	3	315	0.00	30.411 
11:45	49.8	49.8	49.8	56	34.7	1	3	338	0.00	30.410 
11:50	49.9	49.9	49.9	56	34.8	0	3	338	0.00	30.410 
11:55	50.1	50.1	50.1	54	34.1	1	4	338	0.00	30.410 
12:00	50.4	50.4	50.4	54	34.4	0	3	112	0.00	30.410 
12:05	50.4	50.4	50.4	50	32.5	1	4	292	0.00	30.410 
12:10	49.9	49.9	49.9	52	33.0	1	3	292	0.00	30.410 
12:15	50.4	50.4	50.4	51	33.0	0	2	315	0.00	30.406 
12:20	51.0	51.0	51.0	51	33.5	1	5	315	0.00	30.406 
12:25	50.8	50.8	50.8	51	33.3	0	2	315	0.00	30.406 
12:30	51.1	51.1	51.1	52	34.1	0	2	315	0.00	30.394 
12:35	51.4	51.4	51.4	51	33.9	0	2	315	0.00	30.394 
12:40	51.6	51.6	51.6	53	35.0	1	3	315	0.00	30.394 
12:45	51.9	51.9	51.9	53	35.3	1	3	270	0.00	30.392 
12:50	52.2	52.2	52.2	49	33.6	1	3	45	0.00	30.392 
12:55	52.6	52.6	52.6	55	36.9	1	3	112	0.00	30.392 
13:00	52.9	52.9	52.9	48	33.7	0	2	112	0.00	30.383 
13:05	53.1	53.1	53.1	47	33.4	0	2	338	0.00	30.383 
13:10	53.2	53.2	53.2	46	33.0	0	3	0	0.00	30.383 
13:15	53.3	53.3	53.3	49	34.6	1	6	90	0.00	30.383 
13:20	53.5	53.5	53.5	48	34.3	0	2	45	0.00	30.383 
13:25	53.6	53.6	53.6	48	34.4	1	3	22	0.00	30.383 
13:30	53.6	53.6	53.6	49	34.9	1	7	112	0.00	30.376 
13:35	53.6	53.6	53.6	51	35.9	1	4	45	0.00	30.376 
13:40	53.9	53.9	53.9	49	35.2	1	4	112	0.00	30.376 
13:45	53.6	53.6	53.6	46	33.3	1	4	90	0.00	30.376 
13:50	53.8	53.8	53.8	53	37.1	0	3	90	0.00	30.376 
13:55	53.5	53.5	53.5	48	34.3	1	3	90	0.00	30.376 
14:00	53.3	53.3	53.3	51	35.6	3	9	90	0.00	30.375 
14:05	53.8	53.8	53.8	49	35.1	1	5	112	0.00	30.375 
14:10	53.8	53.8	53.8	49	35.1	1	6	112	0.00	30.375 
14:15	53.9	53.9	53.9	50	35.7	1	6	45	0.00	30.373 
14:20	54.4	54.4	54.4	50	36.2	1	3	45	0.00	30.373 
14:25	54.2	54.2	54.2	50	36.0	1	5	112	0.00	30.373 
14:30	53.8	53.8	53.8	47	34.0	3	7	90	0.00	30.360 
14:35	53.9	53.9	53.9	48	34.7	2	5	112	0.00	30.360 
14:40	53.6	53.6	53.6	44	32.2	2	8	112	0.00	30.360 
14:45	53.3	53.3	53.3	49	34.6	2	6	112	0.00	30.360 
14:50	53.8	53.8	53.8	46	33.5	1	5	68	0.00	30.360 
14:55	54.1	54.1	54.1	44	32.7	1	4	112	0.00	30.360 
15:00	54.4	54.4	54.4	46	34.1	1	2	0	0.00	30.348 
15:05	54.8	54.8	54.8	49	36.0	2	6	112	0.00	30.348 
15:10	55.0	55.0	55.0	46	34.6	1	5	90	0.00	30.348 
15:15	55.0	55.0	55.0	48	35.7	0	2	338	0.00	30.343 
15:20	55.0	55.0	55.0	45	34.1	1	5	90	0.00	30.343 
15:25	55.3	55.3	55.3	48	35.9	1	4	45	0.00	30.343 
15:30	55.6	55.6	55.6	49	36.7	1	3	45	0.00	30.336 
15:35	55.9	55.9	55.9	48	36.5	1	4	45	0.00	30.336 
15:40	55.6	55.6	55.6	44	34.0	2	7	90	0.00	30.336 
15:45	55.4	55.4	55.4	45	34.4	1	5	45	0.00	30.328 
15:50	55.6	55.6	55.6	42	32.9	1	2	338	0.00	30.328 
15:55	55.4	55.4	55.4	44	33.9	2	6	112	0.00	30.328 
16:00	55.6	55.6	55.6	43	33.5	0	2	0	0.00	30.326 
16:05	55.3	55.3	55.3	41	32.0	1	4	90	0.00	30.326 
16:10	54.8	54.8	54.8	43	32.7	1	3	45	0.00	30.326 
16:15	54.5	54.5	54.5	46	34.1	1	5	45	0.00	30.318 
16:20	54.4	54.4	54.4	45	33.5	1	3	112	0.00	30.318 
16:25	54.5	54.5	54.5	46	34.1	2	4	112	0.00	30.318 
16:30	54.7	54.7	54.7	46	34.3	2	6	90	0.00	30.307 
16:35	54.8	54.8	54.8	45	33.9	1	4	68	0.00	30.307 
16:40	55.3	55.3	55.3	44	33.8	1	4	68	0.00	30.307 
16:45	55.4	55.4	55.4	44	33.9	2	7	112	0.00	30.307 
16:50	55.0	55.0	55.0	42	32.3	2	7	90	0.00	30.307 
16:55	54.8	54.8	54.8	43	32.7	2	6	112	0.00	30.307 
17:00	54.7	54.7	54.7	44	33.2	3	9	112	0.00	30.298 
17:05	54.5	54.5	54.5	43	32.5	3	7	90	0.01	30.298 
17:10	54.5	54.5	54.5	41	31.3	3	9	90	0.00	30.298 
17:15	54.5	54.5	54.5	43	32.5	2	4	90	0.00	30.299 
17:20	54.7	54.7	54.7	41	31.5	3	10	112	0.00	30.299 
17:25	54.7	54.7	54.7	45	33.8	3	9	90	0.00	30.299 
17:30	54.4	54.4	54.4	43	32.4	4	10	112	0.00	30.284 
17:35	54.4	54.4	54.4	42	31.8	5	12	112	0.00	30.284 
17:40	54.5	54.5	54.5	42	31.9	3	9	112	0.00	30.284 
17:45	54.5	54.5	54.5	40	30.7	4	9	112	0.00	30.275 
17:50	54.4	54.4	54.4	44	32.9	3	7	112	0.00	30.275 
17:55	54.4	54.4	54.4	44	32.9	4	10	112	0.00	30.275 
18:00	54.2	54.2	54.2	45	33.3	5	10	112	0.00	30.268 
18:05	54.1	54.1	54.1	44	32.7	4	11	90	0.00	30.268 
18:10	54.1	54.1	54.1	44	32.7	5	13	90	0.00	30.268 
18:15	53.6	53.6	53.6	44	32.2	5	12	112	0.00	30.264 
18:20	53.5	53.5	53.5	43	31.6	5	14	112	0.00	30.264 
18:25	53.3	53.3	53.3	45	32.5	5	10	112	0.00	30.264 
18:30	53.3	53.3	53.3	46	33.1	5	12	112	0.00	30.268 
18:35	53.2	53.2	53.2	45	32.4	5	12	112	0.00	30.268 
18:40	53.1	53.1	53.1	45	32.3	4	8	112	0.00	30.268 
18:45	53.1	53.1	53.1	46	32.9	4	10	112	0.00	30.267 
18:50	53.1	53.1	53.1	44	31.8	5	10	112	0.00	30.267 
18:55	52.9	52.9	52.9	45	32.1	5	11	90	0.00	30.267 
19:00	52.8	52.8	52.8	46	32.6	4	7	90	0.00	30.253 
19:05	52.6	52.6	52.6	46	32.4	5	10	112	0.00	30.253 
19:10	52.6	52.6	52.6	46	32.4	5	11	90	0.00	30.253 
19:15	52.5	52.5	52.5	45	31.8	5	11	112	0.00	30.252 
19:20	52.2	52.2	52.2	45	31.5	4	11	90	0.00	30.252 
19:25	52.2	52.2	52.2	44	31.0	5	10	90	0.00	30.252 
19:30	52.0	52.0	52.0	43	30.2	4	9	90	0.00	30.256 
19:35	51.9	51.9	51.9	45	31.2	5	10	112	0.00	30.256 
19:40	51.6	51.6	51.6	46	31.5	5	9	112	0.00	30.256 
19:45	51.4	51.4	51.4	48	32.4	3	7	112	0.00	30.252 
19:50	51.3	51.3	51.3	48	32.3	4	9	90	0.00	30.252 
19:55	51.1	51.1	51.1	48	32.1	3	7	112	0.00	30.252 
20:00	51.1	51.1	51.1	49	32.6	3	7	90	0.00	30.265 
20:05	51.0	51.0	51.0	49	32.5	2	5	90	0.00	30.265 
20:10	50.8	50.8	50.8	49	32.3	3	6	68	0.00	30.265 
20:15	50.7	50.7	50.7	49	32.2	3	6	90	0.00	30.265 
20:20	50.7	50.7	50.7	50	32.7	2	6	68	0.00	30.265 
20:25	50.5	50.5	50.5	52	33.5	4	13	90	0.00	30.265 
20:30	50.5	50.5	50.5	53	34.0	4	10	90	0.00	30.264 
20:35	50.4	50.4	50.4	54	34.4	4	9	112	0.00	30.264 
20:40	50.2	50.2	50.2	53	33.7	4	9	90	0.00	30.264 
20:45	50.1	50.1	50.1	54	34.1	2	6	112	0.00	30.268 
20:50	49.9	48.8	49.9	54	33.9	4	7	112	0.00	30.268 
20:55	49.9	49.9	49.9	54	33.9	3	6	90	0.00	30.268 
21:00	49.8	48.6	49.8	54	33.8	4	9	90	0.00	30.265 
21:05	49.6	49.6	49.6	55	34.1	3	5	112	0.00	30.265 
21:10	49.6	48.4	49.6	56	34.6	4	8	112	0.00	30.265 
21:15	49.5	47.1	49.5	58	35.3	6	11	112	0.00	30.272 
21:20	49.2	46.7	49.2	60	35.9	6	12	112	0.00	30.272 
21:25	49.1	46.6	49.1	62	36.6	6	10	90	0.00	30.272 
21:30	48.9	46.9	48.9	63	36.9	5	11	90	0.00	30.273 
21:35	48.6	46.0	48.6	63	36.6	6	11	112	0.00	30.273 
21:40	48.5	47.1	48.5	64	36.9	4	9	112	0.00	30.273 
21:45	48.3	46.9	48.3	64	36.7	4	12	90	0.00	30.283 
21:50	48.0	45.3	48.0	64	36.4	6	12	112	0.00	30.283 
21:55	47.9	45.8	47.9	64	36.3	5	10	112	0.00	30.283 
22:00	47.9	45.8	47.9	64	36.3	5	10	112	0.00	30.296 
22:05	47.7	45.5	47.7	64	36.1	5	10	112	0.00	30.296 
22:10	47.6	44.8	47.6	63	35.6	6	11	112	0.00	30.296 
22:15	47.4	45.9	47.4	63	35.4	4	12	112	0.00	30.302 
22:20	47.3	45.0	47.3	62	34.9	5	12	112	0.00	30.302 
22:25	47.1	44.8	47.1	62	34.8	5	9	90	0.00	30.302 
22:30	47.0	44.1	47.0	61	34.3	6	12	112	0.00	30.291 
22:35	47.0	45.4	47.0	62	34.7	4	10	112	0.00	30.291 
22:40	46.8	46.8	46.8	64	35.3	3	8	112	0.00	30.291 
22:45	46.7	45.1	46.7	65	35.6	4	10	112	0.00	30.279 
22:50	46.4	44.7	46.4	65	35.3	4	7	90	0.00	30.279 
22:55	46.2	43.8	46.2	64	34.7	5	9	112	0.00	30.279 
23:00	46.1	44.4	46.1	63	34.2	4	9	90	0.00	30.282 
23:05	46.1	46.1	46.1	63	34.2	2	10	68	0.00	30.282 
23:10	46.0	43.5	46.0	60	32.9	5	10	112	0.00	30.282 
23:15	45.8	44.0	45.8	59	32.3	4	11	90	0.00	30.278 
23:20	45.7	43.9	45.7	58	31.8	4	9	112	0.00	30.278 
23:25	45.7	45.7	45.7	58	31.8	3	7	90	0.00	30.278 
23:30	45.7	43.9	45.7	58	31.8	4	11	90	0.00	30.279 
23:35	45.5	43.7	45.5	59	32.0	4	10	112	0.00	30.279 
23:40	45.4	43.6	45.4	59	31.9	4	9	90	0.00	30.279 
23:45	45.4	43.6	45.4	59	31.9	4	7	112	0.00	30.279 
23:50	45.2	43.3	45.2	60	32.1	4	9	112	0.00	30.279 
23:55	45.2	45.2	45.2	60	32.1	3	7	90	0.00	30.279 

CoCoRaHS
IN-AL-39
A2 Web Hosting
Creative Commons License
GoDaddy
search engine by freefind advanced

loaded 2018-11-16 23:32:20 • last modified 2010-11-18 10:43:29
Privacy PolicyDisclaimer
• wx.awcolley.com is powered by PmWiki v.2002016 •
• all content (unless otherwise noted) © 2018 A W Colley